sensor_id;sensor_type;location;lat;lon;timestamp;P1;durP1;ratioP1;P2;durP2;ratioP2
56171;SDS011;42052;41.634;-0.946;2022-10-17T00:01:02;2.65;;;1.50;;
56171;SDS011;42052;41.634;-0.946;2022-10-17T00:03:29;2.65;;;1.40;;
56171;SDS011;42052;41.634;-0.946;2022-10-17T00:05:55;2.33;;;1.40;;
56171;SDS011;42052;41.634;-0.946;2022-10-17T00:08:21;3.20;;;1.52;;
56171;SDS011;42052;41.634;-0.946;2022-10-17T00:11:00;1.83;;;1.40;;
56171;SDS011;42052;41.634;-0.946;2022-10-17T00:13:28;3.00;;;1.47;;
56171;SDS011;42052;41.634;-0.946;2022-10-17T00:15:56;3.75;;;1.40;;
56171;SDS011;42052;41.634;-0.946;2022-10-17T00:18:22;2.55;;;1.50;;
56171;SDS011;42052;41.634;-0.946;2022-10-17T00:20:49;2.42;;;1.55;;
56171;SDS011;42052;41.634;-0.946;2022-10-17T00:23:15;2.35;;;1.20;;
56171;SDS011;42052;41.634;-0.946;2022-10-17T00:25:41;3.85;;;1.40;;
56171;SDS011;42052;41.634;-0.946;2022-10-17T00:28:08;2.90;;;1.45;;
56171;SDS011;42052;41.634;-0.946;2022-10-17T00:30:35;3.05;;;1.60;;
56171;SDS011;42052;41.634;-0.946;2022-10-17T00:33:01;3.25;;;1.70;;
56171;SDS011;42052;41.634;-0.946;2022-10-17T00:35:27;2.80;;;1.27;;
56171;SDS011;42052;41.634;-0.946;2022-10-17T00:37:53;3.42;;;1.50;;
56171;SDS011;42052;41.634;-0.946;2022-10-17T00:40:19;3.88;;;1.60;;
56171;SDS011;42052;41.634;-0.946;2022-10-17T00:42:45;2.25;;;1.30;;
56171;SDS011;42052;41.634;-0.946;2022-10-17T00:47:49;3.47;;;1.52;;
56171;SDS011;42052;41.634;-0.946;2022-10-17T00:50:22;2.88;;;1.17;;
56171;SDS011;42052;41.634;-0.946;2022-10-17T00:52:49;1.92;;;1.30;;
56171;SDS011;42052;41.634;-0.946;2022-10-17T00:55:19;3.03;;;1.40;;
56171;SDS011;42052;41.634;-0.946;2022-10-17T00:57:53;1.92;;;1.20;;
56171;SDS011;42052;41.634;-0.946;2022-10-17T01:00:19;2.38;;;1.20;;
56171;SDS011;42052;41.634;-0.946;2022-10-17T01:02:45;1.77;;;1.17;;
56171;SDS011;42052;41.634;-0.946;2022-10-17T01:05:12;1.77;;;1.27;;
56171;SDS011;42052;41.634;-0.946;2022-10-17T01:07:39;3.20;;;1.50;;
56171;SDS011;42052;41.634;-0.946;2022-10-17T01:10:06;1.88;;;1.05;;
56171;SDS011;42052;41.634;-0.946;2022-10-17T01:18:05;2.17;;;1.27;;
56171;SDS011;42052;41.634;-0.946;2022-10-17T01:23:26;1.42;;;0.93;;
56171;SDS011;42052;41.634;-0.946;2022-10-17T01:42:25;1.65;;;1.20;;
56171;SDS011;42052;41.634;-0.946;2022-10-17T01:44:55;2.00;;;1.20;;
56171;SDS011;42052;41.634;-0.946;2022-10-17T01:47:28;1.83;;;1.25;;
56171;SDS011;42052;41.634;-0.946;2022-10-17T01:49:57;1.73;;;1.05;;
56171;SDS011;42052;41.634;-0.946;2022-10-17T01:52:31;2.00;;;1.42;;
56171;SDS011;42052;41.634;-0.946;2022-10-17T01:55:15;2.42;;;1.23;;
56171;SDS011;42052;41.634;-0.946;2022-10-17T01:57:49;1.40;;;1.20;;
56171;SDS011;42052;41.634;-0.946;2022-10-17T02:00:27;2.00;;;1.10;;
56171;SDS011;42052;41.634;-0.946;2022-10-17T02:02:56;3.13;;;1.20;;
56171;SDS011;42052;41.634;-0.946;2022-10-17T02:05:27;1.95;;;1.30;;
56171;SDS011;42052;41.634;-0.946;2022-10-17T02:07:57;2.30;;;1.15;;
56171;SDS011;42052;41.634;-0.946;2022-10-17T02:10:32;1.65;;;1.10;;
56171;SDS011;42052;41.634;-0.946;2022-10-17T02:13:02;1.90;;;1.10;;
56171;SDS011;42052;41.634;-0.946;2022-10-17T02:18:19;1.95;;;1.25;;
56171;SDS011;42052;41.634;-0.946;2022-10-17T02:26:16;3.40;;;1.38;;
56171;SDS011;42052;41.634;-0.946;2022-10-17T02:31:29;2.75;;;1.00;;
56171;SDS011;42052;41.634;-0.946;2022-10-17T02:34:16;2.95;;;1.27;;
56171;SDS011;42052;41.634;-0.946;2022-10-17T02:36:47;2.08;;;1.23;;
56171;SDS011;42052;41.634;-0.946;2022-10-17T02:39:20;1.77;;;1.10;;
56171;SDS011;42052;41.634;-0.946;2022-10-17T02:41:48;2.08;;;1.10;;
56171;SDS011;42052;41.634;-0.946;2022-10-17T02:44:15;2.28;;;1.10;;
56171;SDS011;42052;41.634;-0.946;2022-10-17T02:46:41;2.10;;;1.30;;
56171;SDS011;42052;41.634;-0.946;2022-10-17T02:49:15;2.22;;;1.20;;
56171;SDS011;42052;41.634;-0.946;2022-10-17T02:54:18;1.95;;;1.00;;
56171;SDS011;42052;41.634;-0.946;2022-10-17T02:59:34;2.67;;;1.20;;
56171;SDS011;42052;41.634;-0.946;2022-10-17T03:02:03;2.60;;;1.30;;
56171;SDS011;42052;41.634;-0.946;2022-10-17T03:04:30;3.22;;;1.30;;
56171;SDS011;42052;41.634;-0.946;2022-10-17T03:06:56;2.28;;;1.42;;
56171;SDS011;42052;41.634;-0.946;2022-10-17T03:09:22;1.88;;;1.00;;
56171;SDS011;42052;41.634;-0.946;2022-10-17T03:11:48;2.15;;;1.10;;
56171;SDS011;42052;41.634;-0.946;2022-10-17T03:14:14;1.80;;;1.10;;
56171;SDS011;42052;41.634;-0.946;2022-10-17T03:16:40;3.50;;;1.02;;
56171;SDS011;42052;41.634;-0.946;2022-10-17T03:19:06;2.20;;;1.15;;
56171;SDS011;42052;41.634;-0.946;2022-10-17T03:21:32;2.67;;;1.10;;
56171;SDS011;42052;41.634;-0.946;2022-10-17T03:24:00;2.67;;;1.20;;
56171;SDS011;42052;41.634;-0.946;2022-10-17T03:26:27;1.65;;;1.10;;
56171;SDS011;42052;41.634;-0.946;2022-10-17T03:28:53;2.33;;;1.25;;
56171;SDS011;42052;41.634;-0.946;2022-10-17T03:31:19;1.50;;;1.00;;
56171;SDS011;42052;41.634;-0.946;2022-10-17T03:33:45;2.25;;;1.13;;
56171;SDS011;42052;41.634;-0.946;2022-10-17T03:36:12;1.77;;;1.00;;
56171;SDS011;42052;41.634;-0.946;2022-10-17T03:38:40;1.92;;;1.00;;
56171;SDS011;42052;41.634;-0.946;2022-10-17T03:41:06;2.83;;;1.13;;
56171;SDS011;42052;41.634;-0.946;2022-10-17T03:43:33;2.75;;;1.20;;
56171;SDS011;42052;41.634;-0.946;2022-10-17T03:45:59;2.85;;;1.20;;
56171;SDS011;42052;41.634;-0.946;2022-10-17T03:48:26;2.13;;;1.30;;
56171;SDS011;42052;41.634;-0.946;2022-10-17T03:51:00;2.38;;;1.20;;
56171;SDS011;42052;41.634;-0.946;2022-10-17T03:53:31;2.97;;;1.30;;
56171;SDS011;42052;41.634;-0.946;2022-10-17T03:56:07;1.95;;;1.13;;
56171;SDS011;42052;41.634;-0.946;2022-10-17T03:58:41;1.45;;;1.00;;
56171;SDS011;42052;41.634;-0.946;2022-10-17T04:01:08;1.83;;;1.10;;
56171;SDS011;42052;41.634;-0.946;2022-10-17T04:03:35;2.20;;;1.00;;
56171;SDS011;42052;41.634;-0.946;2022-10-17T04:06:02;2.45;;;1.15;;
56171;SDS011;42052;41.634;-0.946;2022-10-17T04:08:29;1.95;;;1.08;;
56171;SDS011;42052;41.634;-0.946;2022-10-17T04:10:59;1.83;;;1.10;;
56171;SDS011;42052;41.634;-0.946;2022-10-17T04:13:26;1.95;;;1.00;;
56171;SDS011;42052;41.634;-0.946;2022-10-17T04:15:56;2.33;;;1.08;;
56171;SDS011;42052;41.634;-0.946;2022-10-17T04:18:24;2.50;;;1.10;;
56171;SDS011;42052;41.634;-0.946;2022-10-17T04:20:50;1.83;;;1.10;;
56171;SDS011;42052;41.634;-0.946;2022-10-17T04:23:17;2.50;;;1.20;;
56171;SDS011;42052;41.634;-0.946;2022-10-17T04:25:43;1.40;;;1.10;;
56171;SDS011;42052;41.634;-0.946;2022-10-17T04:28:09;2.47;;;1.15;;
56171;SDS011;42052;41.634;-0.946;2022-10-17T04:30:35;1.70;;;0.95;;
56171;SDS011;42052;41.634;-0.946;2022-10-17T04:33:01;1.58;;;1.00;;
56171;SDS011;42052;41.634;-0.946;2022-10-17T04:35:27;3.63;;;1.40;;
56171;SDS011;42052;41.634;-0.946;2022-10-17T04:37:53;1.40;;;0.93;;
56171;SDS011;42052;41.634;-0.946;2022-10-17T04:40:19;3.42;;;1.20;;
56171;SDS011;42052;41.634;-0.946;2022-10-17T04:42:45;2.08;;;1.05;;
56171;SDS011;42052;41.634;-0.946;2022-10-17T04:45:11;2.35;;;0.98;;
56171;SDS011;42052;41.634;-0.946;2022-10-17T04:47:37;2.42;;;1.20;;
56171;SDS011;42052;41.634;-0.946;2022-10-17T04:50:04;1.65;;;1.20;;
56171;SDS011;42052;41.634;-0.946;2022-10-17T04:52:30;2.40;;;1.45;;
56171;SDS011;42052;41.634;-0.946;2022-10-17T04:54:56;3.13;;;1.02;;
56171;SDS011;42052;41.634;-0.946;2022-10-17T04:57:22;2.60;;;1.25;;
56171;SDS011;42052;41.634;-0.946;2022-10-17T04:59:49;2.20;;;1.30;;
56171;SDS011;42052;41.634;-0.946;2022-10-17T05:02:15;2.33;;;1.17;;
56171;SDS011;42052;41.634;-0.946;2022-10-17T05:04:41;2.80;;;1.20;;
56171;SDS011;42052;41.634;-0.946;2022-10-17T05:07:07;2.65;;;1.02;;
56171;SDS011;42052;41.634;-0.946;2022-10-17T05:09:33;1.73;;;1.00;;
56171;SDS011;42052;41.634;-0.946;2022-10-17T05:11:59;2.70;;;1.10;;
56171;SDS011;42052;41.634;-0.946;2022-10-17T05:14:25;1.58;;;0.90;;
56171;SDS011;42052;41.634;-0.946;2022-10-17T05:16:51;1.45;;;1.08;;
56171;SDS011;42052;41.634;-0.946;2022-10-17T05:19:17;1.83;;;1.20;;
56171;SDS011;42052;41.634;-0.946;2022-10-17T05:21:43;1.92;;;1.20;;
56171;SDS011;42052;41.634;-0.946;2022-10-17T05:24:10;3.40;;;1.60;;
56171;SDS011;42052;41.634;-0.946;2022-10-17T05:26:37;2.70;;;1.30;;
56171;SDS011;42052;41.634;-0.946;2022-10-17T05:29:03;3.42;;;1.30;;
56171;SDS011;42052;41.634;-0.946;2022-10-17T05:31:30;2.70;;;1.45;;
56171;SDS011;42052;41.634;-0.946;2022-10-17T05:34:00;3.22;;;1.52;;
56171;SDS011;42052;41.634;-0.946;2022-10-17T05:36:26;3.15;;;1.58;;
56171;SDS011;42052;41.634;-0.946;2022-10-17T05:38:53;3.20;;;1.70;;
56171;SDS011;42052;41.634;-0.946;2022-10-17T05:41:19;2.35;;;1.35;;
56171;SDS011;42052;41.634;-0.946;2022-10-17T05:43:46;3.78;;;1.45;;
56171;SDS011;42052;41.634;-0.946;2022-10-17T05:46:11;4.93;;;1.80;;
56171;SDS011;42052;41.634;-0.946;2022-10-17T05:48:37;12.35;;;3.22;;
56171;SDS011;42052;41.634;-0.946;2022-10-17T05:51:05;13.77;;;3.08;;
56171;SDS011;42052;41.634;-0.946;2022-10-17T05:53:34;18.58;;;3.90;;
56171;SDS011;42052;41.634;-0.946;2022-10-17T05:56:03;20.17;;;4.70;;
56171;SDS011;42052;41.634;-0.946;2022-10-17T05:58:31;29.20;;;5.45;;
56171;SDS011;42052;41.634;-0.946;2022-10-17T06:00:59;28.70;;;5.13;;
56171;SDS011;42052;41.634;-0.946;2022-10-17T06:03:27;22.75;;;5.93;;
56171;SDS011;42052;41.634;-0.946;2022-10-17T06:05:54;23.55;;;5.50;;
56171;SDS011;42052;41.634;-0.946;2022-10-17T06:08:20;32.58;;;5.55;;
56171;SDS011;42052;41.634;-0.946;2022-10-17T06:10:47;25.58;;;5.38;;
56171;SDS011;42052;41.634;-0.946;2022-10-17T06:13:15;21.90;;;5.80;;
56171;SDS011;42052;41.634;-0.946;2022-10-17T06:15:42;22.55;;;5.80;;
56171;SDS011;42052;41.634;-0.946;2022-10-17T06:18:09;22.30;;;5.15;;
56171;SDS011;42052;41.634;-0.946;2022-10-17T06:20:36;17.40;;;4.65;;
56171;SDS011;42052;41.634;-0.946;2022-10-17T06:23:02;18.73;;;4.70;;
56171;SDS011;42052;41.634;-0.946;2022-10-17T06:25:31;23.80;;;5.50;;
56171;SDS011;42052;41.634;-0.946;2022-10-17T06:27:57;21.17;;;4.82;;
56171;SDS011;42052;41.634;-0.946;2022-10-17T06:30:24;19.38;;;4.57;;
56171;SDS011;42052;41.634;-0.946;2022-10-17T06:32:53;17.60;;;4.63;;
56171;SDS011;42052;41.634;-0.946;2022-10-17T06:35:19;17.92;;;4.80;;
56171;SDS011;42052;41.634;-0.946;2022-10-17T06:37:45;18.17;;;5.13;;
56171;SDS011;42052;41.634;-0.946;2022-10-17T06:40:11;19.38;;;5.10;;
56171;SDS011;42052;41.634;-0.946;2022-10-17T06:42:41;20.88;;;5.13;;
56171;SDS011;42052;41.634;-0.946;2022-10-17T06:45:07;20.13;;;5.40;;
56171;SDS011;42052;41.634;-0.946;2022-10-17T06:47:34;18.48;;;4.57;;
56171;SDS011;42052;41.634;-0.946;2022-10-17T06:50:01;13.40;;;4.43;;
56171;SDS011;42052;41.634;-0.946;2022-10-17T06:52:27;19.42;;;5.00;;
56171;SDS011;42052;41.634;-0.946;2022-10-17T06:54:53;15.57;;;4.28;;
56171;SDS011;42052;41.634;-0.946;2022-10-17T06:57:19;15.13;;;4.35;;
56171;SDS011;42052;41.634;-0.946;2022-10-17T06:59:45;13.27;;;4.03;;
56171;SDS011;42052;41.634;-0.946;2022-10-17T07:02:11;14.80;;;4.30;;
56171;SDS011;42052;41.634;-0.946;2022-10-17T07:04:37;14.32;;;4.15;;
56171;SDS011;42052;41.634;-0.946;2022-10-17T07:07:03;14.25;;;4.40;;
56171;SDS011;42052;41.634;-0.946;2022-10-17T07:09:30;15.50;;;4.45;;
56171;SDS011;42052;41.634;-0.946;2022-10-17T07:11:57;11.35;;;4.20;;
56171;SDS011;42052;41.634;-0.946;2022-10-17T07:14:24;13.88;;;4.05;;
56171;SDS011;42052;41.634;-0.946;2022-10-17T07:16:58;15.75;;;4.55;;
56171;SDS011;42052;41.634;-0.946;2022-10-17T07:19:25;15.75;;;4.32;;
56171;SDS011;42052;41.634;-0.946;2022-10-17T07:21:51;12.60;;;4.30;;
56171;SDS011;42052;41.634;-0.946;2022-10-17T07:24:18;13.25;;;4.03;;
56171;SDS011;42052;41.634;-0.946;2022-10-17T07:26:44;11.50;;;3.88;;
56171;SDS011;42052;41.634;-0.946;2022-10-17T07:29:10;12.60;;;3.92;;
56171;SDS011;42052;41.634;-0.946;2022-10-17T07:31:36;11.57;;;3.53;;
56171;SDS011;42052;41.634;-0.946;2022-10-17T07:34:02;13.02;;;3.55;;
56171;SDS011;42052;41.634;-0.946;2022-10-17T07:36:28;9.77;;;3.20;;
56171;SDS011;42052;41.634;-0.946;2022-10-17T07:38:54;13.73;;;3.70;;
56171;SDS011;42052;41.634;-0.946;2022-10-17T07:41:20;10.25;;;3.55;;
56171;SDS011;42052;41.634;-0.946;2022-10-17T07:43:46;10.55;;;3.83;;
56171;SDS011;42052;41.634;-0.946;2022-10-17T07:46:12;11.20;;;3.35;;
56171;SDS011;42052;41.634;-0.946;2022-10-17T07:48:38;9.63;;;3.30;;
56171;SDS011;42052;41.634;-0.946;2022-10-17T07:51:05;10.20;;;3.30;;
56171;SDS011;42052;41.634;-0.946;2022-10-17T07:53:36;9.25;;;3.40;;
56171;SDS011;42052;41.634;-0.946;2022-10-17T07:56:06;10.60;;;3.50;;
56171;SDS011;42052;41.634;-0.946;2022-10-17T07:58:33;10.02;;;3.35;;
56171;SDS011;42052;41.634;-0.946;2022-10-17T08:01:03;9.23;;;3.30;;
56171;SDS011;42052;41.634;-0.946;2022-10-17T08:03:33;10.40;;;3.70;;
56171;SDS011;42052;41.634;-0.946;2022-10-17T08:06:00;10.65;;;3.60;;
56171;SDS011;42052;41.634;-0.946;2022-10-17T08:08:27;11.30;;;3.30;;
56171;SDS011;42052;41.634;-0.946;2022-10-17T08:10:53;11.27;;;3.17;;
56171;SDS011;42052;41.634;-0.946;2022-10-17T08:13:21;12.80;;;3.38;;
56171;SDS011;42052;41.634;-0.946;2022-10-17T08:15:47;9.48;;;3.15;;
56171;SDS011;42052;41.634;-0.946;2022-10-17T08:18:13;9.02;;;3.10;;
56171;SDS011;42052;41.634;-0.946;2022-10-17T08:20:40;8.13;;;3.30;;
56171;SDS011;42052;41.634;-0.946;2022-10-17T08:23:06;7.43;;;3.00;;
56171;SDS011;42052;41.634;-0.946;2022-10-17T08:25:32;9.52;;;3.47;;
56171;SDS011;42052;41.634;-0.946;2022-10-17T08:27:58;9.13;;;3.30;;
56171;SDS011;42052;41.634;-0.946;2022-10-17T08:30:24;9.25;;;3.30;;
56171;SDS011;42052;41.634;-0.946;2022-10-17T08:32:50;9.10;;;3.08;;
56171;SDS011;42052;41.634;-0.946;2022-10-17T08:35:16;10.38;;;3.13;;
56171;SDS011;42052;41.634;-0.946;2022-10-17T08:37:43;8.60;;;3.15;;
56171;SDS011;42052;41.634;-0.946;2022-10-17T08:40:14;8.77;;;3.17;;
56171;SDS011;42052;41.634;-0.946;2022-10-17T08:45:36;8.93;;;3.15;;
56171;SDS011;42052;41.634;-0.946;2022-10-17T08:48:15;6.82;;;2.72;;
56171;SDS011;42052;41.634;-0.946;2022-10-17T08:50:45;13.80;;;3.20;;
56171;SDS011;42052;41.634;-0.946;2022-10-17T08:53:36;8.73;;;2.95;;
56171;SDS011;42052;41.634;-0.946;2022-10-17T08:56:14;6.43;;;3.00;;
56171;SDS011;42052;41.634;-0.946;2022-10-17T08:58:40;7.32;;;3.15;;
56171;SDS011;42052;41.634;-0.946;2022-10-17T09:12:16;8.27;;;2.88;;
56171;SDS011;42052;41.634;-0.946;2022-10-17T09:20:27;6.20;;;2.50;;
56171;SDS011;42052;41.634;-0.946;2022-10-17T09:22:58;6.85;;;2.80;;
56171;SDS011;42052;41.634;-0.946;2022-10-17T09:25:49;6.43;;;2.72;;
56171;SDS011;42052;41.634;-0.946;2022-10-17T09:31:09;6.20;;;2.40;;
56171;SDS011;42052;41.634;-0.946;2022-10-17T09:33:45;6.20;;;2.72;;
56171;SDS011;42052;41.634;-0.946;2022-10-17T09:36:15;7.20;;;2.80;;
56171;SDS011;42052;41.634;-0.946;2022-10-17T09:38:47;7.25;;;2.67;;
56171;SDS011;42052;41.634;-0.946;2022-10-17T09:41:23;5.23;;;2.60;;
56171;SDS011;42052;41.634;-0.946;2022-10-17T09:44:17;6.93;;;2.30;;
56171;SDS011;42052;41.634;-0.946;2022-10-17T09:47:17;5.45;;;2.58;;
56171;SDS011;42052;41.634;-0.946;2022-10-17T09:49:49;4.70;;;2.40;;
56171;SDS011;42052;41.634;-0.946;2022-10-17T09:52:17;6.82;;;2.75;;
56171;SDS011;42052;41.634;-0.946;2022-10-17T09:54:44;5.47;;;2.63;;
56171;SDS011;42052;41.634;-0.946;2022-10-17T09:59:46;5.75;;;2.40;;
56171;SDS011;42052;41.634;-0.946;2022-10-17T10:02:21;6.57;;;2.40;;
56171;SDS011;42052;41.634;-0.946;2022-10-17T10:04:59;6.43;;;2.58;;
56171;SDS011;42052;41.634;-0.946;2022-10-17T10:10:42;5.97;;;2.65;;
56171;SDS011;42052;41.634;-0.946;2022-10-17T10:15:38;6.10;;;2.60;;
56171;SDS011;42052;41.634;-0.946;2022-10-17T10:23:34;5.47;;;2.30;;
56171;SDS011;42052;41.634;-0.946;2022-10-17T10:28:52;6.05;;;2.47;;
56171;SDS011;42052;41.634;-0.946;2022-10-17T10:31:34;3.78;;;1.88;;
56171;SDS011;42052;41.634;-0.946;2022-10-17T10:34:11;5.20;;;2.00;;
56171;SDS011;42052;41.634;-0.946;2022-10-17T10:36:44;4.07;;;2.00;;
56171;SDS011;42052;41.634;-0.946;2022-10-17T10:39:45;6.10;;;2.50;;
56171;SDS011;42052;41.634;-0.946;2022-10-17T10:42:21;6.32;;;2.13;;
56171;SDS011;42052;41.634;-0.946;2022-10-17T10:45:15;4.40;;;2.00;;
56171;SDS011;42052;41.634;-0.946;2022-10-17T10:53:23;4.70;;;2.20;;
56171;SDS011;42052;41.634;-0.946;2022-10-17T11:02:15;5.32;;;1.75;;
56171;SDS011;42052;41.634;-0.946;2022-10-17T11:04:40;4.75;;;2.15;;
56171;SDS011;42052;41.634;-0.946;2022-10-17T11:07:23;4.38;;;2.28;;
56171;SDS011;42052;41.634;-0.946;2022-10-17T11:10:00;5.80;;;2.55;;
56171;SDS011;42052;41.634;-0.946;2022-10-17T11:12:50;5.50;;;2.20;;
56171;SDS011;42052;41.634;-0.946;2022-10-17T11:15:39;5.63;;;2.20;;
56171;SDS011;42052;41.634;-0.946;2022-10-17T11:18:12;4.63;;;2.20;;
56171;SDS011;42052;41.634;-0.946;2022-10-17T11:20:56;6.05;;;2.28;;
56171;SDS011;42052;41.634;-0.946;2022-10-17T11:26:06;5.10;;;2.00;;
56171;SDS011;42052;41.634;-0.946;2022-10-17T11:28:37;5.65;;;1.90;;
56171;SDS011;42052;41.634;-0.946;2022-10-17T11:31:05;5.63;;;1.95;;
56171;SDS011;42052;41.634;-0.946;2022-10-17T11:36:21;3.65;;;1.80;;
56171;SDS011;42052;41.634;-0.946;2022-10-17T11:38:53;4.82;;;1.90;;
56171;SDS011;42052;41.634;-0.946;2022-10-17T11:44:16;4.43;;;1.90;;
56171;SDS011;42052;41.634;-0.946;2022-10-17T11:46:51;3.92;;;1.70;;
56171;SDS011;42052;41.634;-0.946;2022-10-17T11:49:46;5.15;;;2.00;;
56171;SDS011;42052;41.634;-0.946;2022-10-17T11:52:29;2.45;;;1.60;;
56171;SDS011;42052;41.634;-0.946;2022-10-17T11:54:58;5.85;;;2.03;;
56171;SDS011;42052;41.634;-0.946;2022-10-17T12:15:53;4.32;;;1.80;;
56171;SDS011;42052;41.634;-0.946;2022-10-17T12:18:22;4.68;;;1.60;;
56171;SDS011;42052;41.634;-0.946;2022-10-17T12:20:57;4.10;;;1.60;;
56171;SDS011;42052;41.634;-0.946;2022-10-17T12:23:25;3.92;;;1.70;;
56171;SDS011;42052;41.634;-0.946;2022-10-17T12:38:45;4.43;;;1.60;;
56171;SDS011;42052;41.634;-0.946;2022-10-17T12:41:12;4.00;;;1.80;;
56171;SDS011;42052;41.634;-0.946;2022-10-17T12:43:51;3.90;;;1.58;;
56171;SDS011;42052;41.634;-0.946;2022-10-17T12:49:35;3.90;;;1.65;;
56171;SDS011;42052;41.634;-0.946;2022-10-17T12:52:19;4.70;;;1.75;;
56171;SDS011;42052;41.634;-0.946;2022-10-17T12:54:50;4.22;;;1.73;;
56171;SDS011;42052;41.634;-0.946;2022-10-17T12:57:36;5.07;;;1.85;;
56171;SDS011;42052;41.634;-0.946;2022-10-17T13:02:41;3.65;;;1.58;;
56171;SDS011;42052;41.634;-0.946;2022-10-17T13:05:30;7.28;;;1.60;;
56171;SDS011;42052;41.634;-0.946;2022-10-17T13:07:56;3.92;;;1.60;;
56171;SDS011;42052;41.634;-0.946;2022-10-17T13:10:29;4.05;;;1.60;;
56171;SDS011;42052;41.634;-0.946;2022-10-17T13:13:20;4.50;;;1.63;;
56171;SDS011;42052;41.634;-0.946;2022-10-17T13:15:53;3.90;;;1.50;;
56171;SDS011;42052;41.634;-0.946;2022-10-17T13:18:21;4.18;;;1.77;;
56171;SDS011;42052;41.634;-0.946;2022-10-17T13:23:28;2.63;;;1.48;;
56171;SDS011;42052;41.634;-0.946;2022-10-17T13:26:05;4.32;;;1.45;;
56171;SDS011;42052;41.634;-0.946;2022-10-17T13:28:31;3.53;;;1.70;;
56171;SDS011;42052;41.634;-0.946;2022-10-17T13:30:58;3.30;;;1.63;;
56171;SDS011;42052;41.634;-0.946;2022-10-17T13:33:28;3.58;;;1.77;;
56171;SDS011;42052;41.634;-0.946;2022-10-17T13:36:02;3.20;;;1.40;;
56171;SDS011;42052;41.634;-0.946;2022-10-17T13:38:31;4.35;;;1.30;;
56171;SDS011;42052;41.634;-0.946;2022-10-17T13:40:59;3.47;;;1.40;;
56171;SDS011;42052;41.634;-0.946;2022-10-17T13:43:27;3.00;;;1.38;;
56171;SDS011;42052;41.634;-0.946;2022-10-17T13:45:56;3.55;;;1.40;;
56171;SDS011;42052;41.634;-0.946;2022-10-17T13:48:29;3.80;;;1.65;;
56171;SDS011;42052;41.634;-0.946;2022-10-17T13:50:59;3.42;;;1.48;;
56171;SDS011;42052;41.634;-0.946;2022-10-17T13:53:37;4.38;;;1.60;;
56171;SDS011;42052;41.634;-0.946;2022-10-17T13:56:17;4.25;;;1.50;;
56171;SDS011;42052;41.634;-0.946;2022-10-17T13:58:47;3.97;;;1.75;;
56171;SDS011;42052;41.634;-0.946;2022-10-17T14:01:14;3.40;;;1.50;;
56171;SDS011;42052;41.634;-0.946;2022-10-17T14:03:44;4.88;;;1.70;;
56171;SDS011;42052;41.634;-0.946;2022-10-17T14:08:37;3.50;;;1.50;;
56171;SDS011;42052;41.634;-0.946;2022-10-17T14:11:14;2.80;;;1.20;;
56171;SDS011;42052;41.634;-0.946;2022-10-17T14:14:04;2.53;;;1.48;;
56171;SDS011;42052;41.634;-0.946;2022-10-17T14:16:36;4.10;;;1.30;;
56171;SDS011;42052;41.634;-0.946;2022-10-17T14:21:30;4.00;;;1.58;;
56171;SDS011;42052;41.634;-0.946;2022-10-17T14:26:48;5.05;;;1.42;;
56171;SDS011;42052;41.634;-0.946;2022-10-17T14:29:26;3.20;;;1.30;;
56171;SDS011;42052;41.634;-0.946;2022-10-17T14:31:57;4.68;;;1.42;;
56171;SDS011;42052;41.634;-0.946;2022-10-17T14:34:29;2.47;;;1.40;;
56171;SDS011;42052;41.634;-0.946;2022-10-17T14:36:59;2.50;;;1.20;;
56171;SDS011;42052;41.634;-0.946;2022-10-17T14:39:26;2.65;;;1.42;;
56171;SDS011;42052;41.634;-0.946;2022-10-17T14:41:53;3.22;;;1.45;;
56171;SDS011;42052;41.634;-0.946;2022-10-17T14:44:21;2.85;;;1.35;;
56171;SDS011;42052;41.634;-0.946;2022-10-17T14:46:51;3.47;;;1.38;;
56171;SDS011;42052;41.634;-0.946;2022-10-17T14:49:32;5.22;;;1.33;;
56171;SDS011;42052;41.634;-0.946;2022-10-17T14:54:41;2.97;;;1.40;;
56171;SDS011;42052;41.634;-0.946;2022-10-17T14:59:55;2.53;;;1.45;;
56171;SDS011;42052;41.634;-0.946;2022-10-17T15:02:22;4.22;;;1.50;;
56171;SDS011;42052;41.634;-0.946;2022-10-17T15:04:49;2.30;;;1.27;;
56171;SDS011;42052;41.634;-0.946;2022-10-17T15:07:16;3.60;;;1.55;;
56171;SDS011;42052;41.634;-0.946;2022-10-17T15:09:42;3.28;;;1.20;;
56171;SDS011;42052;41.634;-0.946;2022-10-17T15:12:13;5.32;;;1.45;;
56171;SDS011;42052;41.634;-0.946;2022-10-17T15:14:41;3.58;;;1.38;;
56171;SDS011;42052;41.634;-0.946;2022-10-17T15:17:11;2.78;;;1.38;;
56171;SDS011;42052;41.634;-0.946;2022-10-17T15:19:39;3.67;;;1.63;;
56171;SDS011;42052;41.634;-0.946;2022-10-17T15:22:06;3.47;;;1.23;;
56171;SDS011;42052;41.634;-0.946;2022-10-17T15:24:31;3.50;;;1.40;;
56171;SDS011;42052;41.634;-0.946;2022-10-17T15:26:57;1.73;;;1.10;;
56171;SDS011;42052;41.634;-0.946;2022-10-17T15:29:23;2.40;;;1.20;;
56171;SDS011;42052;41.634;-0.946;2022-10-17T15:31:49;2.20;;;1.17;;
56171;SDS011;42052;41.634;-0.946;2022-10-17T15:34:15;2.28;;;1.00;;
56171;SDS011;42052;41.634;-0.946;2022-10-17T15:36:46;3.13;;;1.33;;
56171;SDS011;42052;41.634;-0.946;2022-10-17T15:39:14;2.67;;;1.25;;
56171;SDS011;42052;41.634;-0.946;2022-10-17T15:41:40;2.90;;;1.40;;
56171;SDS011;42052;41.634;-0.946;2022-10-17T15:44:06;2.28;;;1.20;;
56171;SDS011;42052;41.634;-0.946;2022-10-17T15:46:32;2.13;;;1.17;;
56171;SDS011;42052;41.634;-0.946;2022-10-17T15:49:03;2.55;;;1.40;;
56171;SDS011;42052;41.634;-0.946;2022-10-17T15:51:33;2.92;;;1.15;;
56171;SDS011;42052;41.634;-0.946;2022-10-17T15:53:59;2.13;;;1.13;;
56171;SDS011;42052;41.634;-0.946;2022-10-17T15:56:29;2.55;;;1.27;;
56171;SDS011;42052;41.634;-0.946;2022-10-17T15:59:04;1.70;;;1.08;;
56171;SDS011;42052;41.634;-0.946;2022-10-17T16:01:35;1.65;;;1.17;;
56171;SDS011;42052;41.634;-0.946;2022-10-17T16:04:02;3.13;;;1.20;;
56171;SDS011;42052;41.634;-0.946;2022-10-17T16:06:28;3.33;;;1.25;;
56171;SDS011;42052;41.634;-0.946;2022-10-17T16:08:54;2.22;;;1.15;;
56171;SDS011;42052;41.634;-0.946;2022-10-17T16:11:26;1.92;;;1.10;;
56171;SDS011;42052;41.634;-0.946;2022-10-17T16:14:01;1.92;;;1.05;;
56171;SDS011;42052;41.634;-0.946;2022-10-17T16:16:29;2.30;;;1.20;;
56171;SDS011;42052;41.634;-0.946;2022-10-17T16:18:55;1.85;;;1.02;;
56171;SDS011;42052;41.634;-0.946;2022-10-17T16:21:22;2.65;;;1.20;;
56171;SDS011;42052;41.634;-0.946;2022-10-17T16:23:52;2.17;;;1.10;;
56171;SDS011;42052;41.634;-0.946;2022-10-17T16:26:18;2.42;;;1.20;;
56171;SDS011;42052;41.634;-0.946;2022-10-17T16:28:45;2.58;;;0.90;;
56171;SDS011;42052;41.634;-0.946;2022-10-17T16:33:42;2.03;;;1.08;;
56171;SDS011;42052;41.634;-0.946;2022-10-17T16:36:08;3.65;;;1.35;;
56171;SDS011;42052;41.634;-0.946;2022-10-17T16:38:34;2.22;;;1.10;;
56171;SDS011;42052;41.634;-0.946;2022-10-17T16:41:00;2.30;;;1.17;;
56171;SDS011;42052;41.634;-0.946;2022-10-17T16:43:26;3.50;;;1.30;;
56171;SDS011;42052;41.634;-0.946;2022-10-17T16:45:54;2.22;;;1.13;;
56171;SDS011;42052;41.634;-0.946;2022-10-17T16:48:20;6.38;;;1.40;;
56171;SDS011;42052;41.634;-0.946;2022-10-17T16:50:46;6.43;;;1.38;;
56171;SDS011;42052;41.634;-0.946;2022-10-17T16:53:11;2.78;;;1.05;;
56171;SDS011;42052;41.634;-0.946;2022-10-17T16:55:37;5.72;;;1.20;;
56171;SDS011;42052;41.634;-0.946;2022-10-17T16:58:03;3.33;;;1.20;;
56171;SDS011;42052;41.634;-0.946;2022-10-17T17:00:29;2.33;;;1.20;;
56171;SDS011;42052;41.634;-0.946;2022-10-17T17:02:55;3.55;;;1.40;;
56171;SDS011;42052;41.634;-0.946;2022-10-17T17:05:21;2.90;;;1.33;;
56171;SDS011;42052;41.634;-0.946;2022-10-17T17:07:47;3.60;;;1.15;;
56171;SDS011;42052;41.634;-0.946;2022-10-17T17:10:13;3.20;;;1.20;;
56171;SDS011;42052;41.634;-0.946;2022-10-17T17:12:39;3.65;;;1.20;;
56171;SDS011;42052;41.634;-0.946;2022-10-17T17:15:05;2.75;;;1.20;;
56171;SDS011;42052;41.634;-0.946;2022-10-17T17:17:32;1.58;;;0.98;;
56171;SDS011;42052;41.634;-0.946;2022-10-17T17:19:59;2.90;;;1.25;;
56171;SDS011;42052;41.634;-0.946;2022-10-17T17:22:24;3.30;;;1.20;;
56171;SDS011;42052;41.634;-0.946;2022-10-17T17:24:50;3.00;;;1.17;;